Time;durP1;ratioP1;P1;durP2;ratioP2;P2;SDS_P1;SDS_P2;PMS_P1;PMS_P2;Temp;Humidity;BMP_temperature;BMP_pressure;BME280_temperature;BME280_humidity;BME280_pressure;Samples;Min_cycle;Max_cycle;Signal;HPM_P1;HPM_P2
2022/01/23 00:01:14;;;;;;;31.03;11.53;;;;;;;-2.00;74.23;99844.66;2167451;81;20967;-82
2022/01/23 00:04:15;;;;;;;34.33;13.27;;;;;;;-2.00;74.31;99848.11;2136502;82;21007;-82
2022/01/23 00:07:16;;;;;;;34.87;13.37;;;;;;;-2.02;74.33;99845.83;2139838;82;21369;-82
2022/01/23 00:10:17;;;;;;;31.23;12.70;;;;;;;-2.02;74.29;99848.38;2132854;82;21085;-82
2022/01/23 00:13:27;;;;;;;29.73;12.53;;;;;;;-2.04;74.26;99846.48;2168329;82;21323;-82
2022/01/23 00:19:39;;;;;;;28.73;12.23;;;;;;;-2.09;74.33;99848.69;2168580;81;20967;-82
2022/01/23 00:22:45;;;;;;;28.60;12.30;;;;;;;-2.15;74.32;99848.22;2169274;81;21062;-82
2022/01/23 00:32:15;;;;;;;31.67;12.83;;;;;;;-2.14;74.60;99850.00;2168704;81;21370;-84
2022/01/23 00:35:15;;;;;;;36.90;13.07;;;;;;;-2.19;74.54;99852.59;2129314;83;20988;-83
2022/01/23 00:38:16;;;;;;;44.20;18.47;;;;;;;-2.22;74.64;99851.08;2167079;81;20992;-82
2022/01/23 00:41:16;;;;;;;34.90;14.97;;;;;;;-2.25;74.73;99848.28;2130614;83;21034;-82
2022/01/23 00:44:17;;;;;;;36.03;16.70;;;;;;;-2.26;74.75;99849.05;2173344;82;21350;-82
2022/01/23 00:47:17;;;;;;;37.80;15.60;;;;;;;-2.25;74.82;99844.05;2131471;83;21383;-82
2022/01/23 00:50:18;;;;;;;28.10;13.57;;;;;;;-2.22;74.81;99845.95;2167964;81;21002;-83
2022/01/23 00:53:18;;;;;;;34.57;13.10;;;;;;;-2.24;74.51;99842.39;2132296;83;20967;-83
2022/01/23 00:56:19;;;;;;;30.60;11.30;;;;;;;-2.29;74.54;99846.25;2209053;80;21000;-83
2022/01/23 00:59:19;;;;;;;31.13;12.87;;;;;;;-2.31;74.80;99850.36;2222463;80;21367;-82
2022/01/23 01:02:20;;;;;;;26.97;12.30;;;;;;;-2.31;74.64;99841.41;2221584;80;20983;-83
2022/01/23 01:05:21;;;;;;;38.40;11.93;;;;;;;-2.34;74.89;99845.01;2222961;80;21022;-83
2022/01/23 01:08:22;;;;;;;27.93;11.03;;;;;;;-2.32;74.79;99840.91;2221876;80;21023;-83
2022/01/23 01:11:54;;;;;;;27.60;11.20;;;;;;;-2.35;74.83;99842.84;2219446;80;20971;-83
2022/01/23 01:31:08;;;;;;;29.93;11.50;;;;;;;-2.37;74.90;99835.81;2130004;83;21091;-82
2022/01/23 01:34:14;;;;;;;31.57;11.77;;;;;;;-2.41;74.90;99835.07;2169160;81;21486;-82
2022/01/23 01:37:11;;;;;;;29.43;11.50;;;;;;;-2.43;75.02;99834.06;2133415;83;21083;-81
2022/01/23 01:40:12;;;;;;;24.23;11.37;;;;;;;-2.45;75.08;99824.99;2168149;82;21363;-81
2022/01/23 01:43:13;;;;;;;29.67;11.83;;;;;;;-2.44;75.08;99832.28;2165972;82;21102;-82
2022/01/23 01:46:13;;;;;;;32.57;11.47;;;;;;;-2.47;75.09;99831.66;2130666;83;21007;-82
2022/01/23 01:49:13;;;;;;;25.43;10.83;;;;;;;-2.46;75.15;99838.94;2131299;82;21041;-82
2022/01/23 01:52:14;;;;;;;27.27;11.20;;;;;;;-2.50;75.16;99836.91;2168376;82;21388;-82
2022/01/23 01:55:19;;;;;;;27.87;11.83;;;;;;;-2.51;75.13;99840.24;2168369;82;20955;-82
2022/01/23 02:11:22;;;;;;;27.93;12.90;;;;;;;-2.52;75.44;99845.73;2177198;82;21326;-82
2022/01/23 02:50:38;;;;;;;38.43;13.43;;;;;;;-2.56;75.56;99856.50;2221998;80;21128;-81
2022/01/23 02:54:06;;;;;;;28.17;12.73;;;;;;;-2.56;75.74;99861.61;2149540;81;20979;-82
2022/01/23 02:59:45;;;;;;;35.77;13.73;;;;;;;-2.51;75.52;99881.14;2195390;80;21070;-81
2022/01/23 03:02:49;;;;;;;35.20;14.70;;;;;;;-2.50;75.63;99879.09;2226786;80;20987;-82
2022/01/23 03:28:22;;;;;;;33.00;14.80;;;;;;;-2.43;75.48;99872.03;2111781;82;21004;-82
2022/01/23 03:31:23;;;;;;;37.10;15.77;;;;;;;-2.37;75.56;99867.78;2132733;82;21068;-82
2022/01/23 03:34:24;;;;;;;40.30;14.73;;;;;;;-2.37;75.33;99867.39;2130190;82;21420;-82
2022/01/23 03:37:24;;;;;;;32.93;15.43;;;;;;;-2.34;75.53;99865.47;2211998;80;21466;-83
2022/01/23 03:40:25;;;;;;;32.73;15.13;;;;;;;-2.34;75.33;99869.30;2214985;80;20952;-82
2022/01/23 03:43:28;;;;;;;32.50;14.77;;;;;;;-2.34;75.31;99868.91;2210174;80;21392;-83
2022/01/23 03:46:46;;;;;;;39.67;14.97;;;;;;;-2.35;75.34;99871.35;2203489;80;21301;-83
2022/01/23 03:49:36;;;;;;;32.50;13.57;;;;;;;-2.33;75.41;99873.64;2205851;80;21438;-83
2022/01/23 03:52:36;;;;;;;34.53;15.10;;;;;;;-2.33;75.29;99888.98;2209377;80;20977;-83
2022/01/23 03:55:37;;;;;;;39.83;14.77;;;;;;;-2.34;75.35;99883.36;2209939;80;20925;-82
2022/01/23 03:58:38;;;;;;;31.00;14.87;;;;;;;-2.35;75.46;99890.53;2200633;80;21068;-82
2022/01/23 04:01:39;;;;;;;33.43;15.23;;;;;;;-2.32;75.43;99888.21;2205397;80;21316;-82
2022/01/23 04:04:40;;;;;;;41.10;15.03;;;;;;;-2.34;75.27;99883.36;2209690;80;21000;-82
2022/01/23 04:07:40;;;;;;;38.13;14.63;;;;;;;-2.35;75.35;99887.59;2212908;80;21033;-83
2022/01/23 04:10:41;;;;;;;33.07;14.77;;;;;;;-2.36;75.31;99896.42;2210448;80;20965;-83
2022/01/23 04:13:48;;;;;;;36.60;14.27;;;;;;;-2.40;75.36;99905.52;2216094;80;20939;-82
2022/01/23 04:46:46;;;;;;;36.37;15.23;;;;;;;-2.45;75.59;99936.59;2222953;80;21026;-82
2022/01/23 05:05:34;;;;;;;34.10;14.77;;;;;;;-2.58;75.88;99966.68;2103515;83;20944;-82
2022/01/23 05:08:36;;;;;;;33.27;13.70;;;;;;;-2.58;75.87;99968.85;2139698;82;21044;-82
2022/01/23 05:11:36;;;;;;;36.30;15.40;;;;;;;-2.57;76.01;99965.91;2129481;82;21086;-82
2022/01/23 05:14:40;;;;;;;34.07;14.20;;;;;;;-2.58;75.96;99969.23;2136840;82;21031;-82
2022/01/23 05:17:39;;;;;;;37.07;15.70;;;;;;;-2.58;75.91;99962.84;2135083;82;21128;-82
2022/01/23 05:20:41;;;;;;;32.87;15.57;;;;;;;-2.57;76.04;99950.19;2134315;83;20982;-82
2022/01/23 05:23:42;;;;;;;37.80;16.53;;;;;;;-2.54;76.03;99958.48;2139374;82;21513;-83
2022/01/23 05:26:45;;;;;;;36.60;16.33;;;;;;;-2.50;75.90;99959.62;2166301;82;20971;-82
2022/01/23 05:29:45;;;;;;;34.73;16.67;;;;;;;-2.54;75.83;99958.48;2132074;83;21087;-82
2022/01/23 05:32:46;;;;;;;38.87;16.80;;;;;;;-2.57;75.81;99960.80;2168364;81;20963;-81
2022/01/23 05:35:46;;;;;;;41.17;17.23;;;;;;;-2.57;75.92;99960.41;2168229;81;21028;-82
2022/01/23 05:38:46;;;;;;;41.63;16.17;;;;;;;-2.54;76.00;99952.09;2130078;83;21003;-82
2022/01/23 05:41:47;;;;;;;43.87;19.27;;;;;;;-2.52;75.96;99953.50;2124273;82;20985;-82
2022/01/23 05:44:48;;;;;;;41.23;17.30;;;;;;;-2.54;75.88;99960.16;2124906;83;21492;-83
2022/01/23 05:47:48;;;;;;;43.97;18.90;;;;;;;-2.53;76.07;99960.27;2136784;83;21013;-82
2022/01/23 05:50:49;;;;;;;39.10;18.07;;;;;;;-2.50;75.88;99962.19;2140818;82;21007;-82
2022/01/23 05:53:50;;;;;;;43.30;19.53;;;;;;;-2.49;75.90;99954.64;2130716;82;20964;-83
2022/01/23 05:56:50;;;;;;;42.80;19.27;;;;;;;-2.49;75.86;99958.86;2132438;82;21358;-83
2022/01/23 05:59:51;;;;;;;53.00;18.87;;;;;;;-2.47;76.05;99966.27;2133483;82;21024;-79
2022/01/23 06:02:52;;;;;;;52.47;18.90;;;;;;;-2.44;75.93;99970.34;2136211;82;21016;-79
2022/01/23 06:05:52;;;;;;;50.60;18.73;;;;;;;-2.38;75.89;99987.45;2133244;82;20978;-79
2022/01/23 06:08:53;;;;;;;53.47;20.23;;;;;;;-2.36;75.71;99982.97;2128816;82;20992;-78
2022/01/23 06:11:53;;;;;;;44.50;18.37;;;;;;;-2.36;75.60;99988.47;2128265;82;21007;-78
2022/01/23 06:14:54;;;;;;;45.07;18.70;;;;;;;-2.40;75.57;99993.73;2120679;83;21009;-79
2022/01/23 06:17:54;;;;;;;45.57;19.90;;;;;;;-2.45;75.59;99998.86;2140571;82;21585;-80
2022/01/23 06:20:55;;;;;;;40.30;19.27;;;;;;;-2.46;75.73;99993.62;2120720;82;21067;-79
2022/01/23 06:24:06;;;;;;;47.70;21.10;;;;;;;-2.53;75.71;99999.00;2133653;82;21417;-78
2022/01/23 06:27:03;;;;;;;48.93;21.87;;;;;;;-2.56;75.89;100004.77;2130928;82;20986;-79
2022/01/23 06:30:04;;;;;;;45.10;19.90;;;;;;;-2.54;75.99;100006.17;2148141;82;21441;-79
2022/01/23 06:33:05;;;;;;;46.70;20.97;;;;;;;-2.57;75.93;100006.42;2131573;82;21348;-79
2022/01/23 06:36:05;;;;;;;51.00;21.50;;;;;;;-2.58;76.01;100011.03;2136265;82;21004;-79
2022/01/23 06:39:06;;;;;;;44.40;19.77;;;;;;;-2.61;76.07;100013.69;2149617;82;20988;-79
2022/01/23 06:42:06;;;;;;;43.93;21.60;;;;;;;-2.63;76.12;100021.61;2143432;82;20986;-78
2022/01/23 06:45:06;;;;;;;41.10;18.50;;;;;;;-2.63;76.34;100030.17;2136380;82;21013;-79
2022/01/23 06:48:07;;;;;;;40.73;18.53;;;;;;;-2.64;76.28;100032.22;2140994;82;21368;-79
2022/01/23 06:51:07;;;;;;;50.13;21.40;;;;;;;-2.63;76.56;100028.00;2140137;82;21017;-79
2022/01/23 06:54:08;;;;;;;50.93;20.37;;;;;;;-2.58;76.47;100021.64;2124742;82;20969;-79
2022/01/23 06:57:08;;;;;;;50.03;22.23;;;;;;;-2.57;76.52;100018.31;2129449;82;21030;-79
2022/01/23 07:00:09;;;;;;;50.73;20.70;;;;;;;-2.52;76.37;100018.69;2139963;82;21343;-80
2022/01/23 07:03:10;;;;;;;49.30;20.00;;;;;;;-2.51;76.33;100024.31;2133455;82;21016;-79
2022/01/23 07:06:11;;;;;;;43.50;20.33;;;;;;;-2.52;76.40;100028.91;2147243;82;21030;-80
2022/01/23 07:09:11;;;;;;;47.33;21.63;;;;;;;-2.50;76.32;100024.44;2149419;82;21022;-80
2022/01/23 07:12:12;;;;;;;51.00;20.50;;;;;;;-2.41;76.40;100027.73;2131395;81;21351;-80
2022/01/23 07:15:12;;;;;;;49.00;21.90;;;;;;;-2.31;76.42;100030.66;2139615;82;21337;-80
2022/01/23 07:18:15;;;;;;;49.20;20.67;;;;;;;-2.27;76.04;100030.13;2137975;82;21002;-81
2022/01/23 07:21:15;;;;;;;43.77;20.33;;;;;;;-2.29;75.92;100032.95;2134443;82;21036;-80
2022/01/23 07:24:16;;;;;;;42.27;20.20;;;;;;;-2.28;76.08;100042.41;2128903;82;21360;-81
2022/01/23 07:27:20;;;;;;;44.90;21.47;;;;;;;-2.26;75.89;100045.60;2131490;82;21409;-80
2022/01/23 07:30:36;;;;;;;46.50;22.37;;;;;;;-2.25;75.96;100053.78;2150516;82;21603;-79
2022/01/23 07:33:30;;;;;;;49.50;22.30;;;;;;;-2.23;75.81;100059.41;2133976;82;21001;-80
2022/01/23 07:36:30;;;;;;;49.27;21.87;;;;;;;-2.26;75.94;100055.83;2135984;82;21037;-85
2022/01/23 07:39:31;;;;;;;41.37;19.47;;;;;;;-2.26;75.88;100054.94;2147249;81;21065;-82
2022/01/23 07:42:31;;;;;;;48.00;22.67;;;;;;;-2.26;75.89;100057.11;2131751;83;21004;-83
2022/01/23 07:45:32;;;;;;;53.50;23.53;;;;;;;-2.22;75.82;100069.77;2121275;83;20980;-84
2022/01/23 07:48:32;;;;;;;52.00;22.90;;;;;;;-1.23;81.69;100076.41;2133239;82;21383;-84
2022/01/23 07:51:33;;;;;;;49.03;23.67;;;;;;;-1.51;75.86;100081.05;2136395;82;21407;-84
2022/01/23 07:54:33;;;;;;;56.20;23.97;;;;;;;-1.70;75.51;100084.20;2129509;82;21346;-83
2022/01/23 07:57:34;;;;;;;49.37;23.80;;;;;;;-1.80;75.50;100093.17;2129687;82;20993;-84
2022/01/23 08:00:34;;;;;;;42.73;21.17;;;;;;;-1.85;75.78;100099.20;2129527;82;21048;-83
2022/01/23 08:03:34;;;;;;;51.10;22.40;;;;;;;-1.84;75.62;100115.45;2138682;82;21026;-83
2022/01/23 08:06:41;;;;;;;47.07;24.40;;;;;;;-1.83;75.82;100113.41;2150282;82;21144;-83
2022/01/23 08:09:37;;;;;;;49.77;24.23;;;;;;;-1.89;75.62;100123.15;2131828;82;21028;-84
2022/01/23 08:12:39;;;;;;;49.03;22.40;;;;;;;-1.89;75.59;100120.59;2139498;82;20993;-83
2022/01/23 08:15:40;;;;;;;49.33;23.17;;;;;;;-1.87;75.66;100124.17;2167579;81;21445;-83
2022/01/23 08:18:43;;;;;;;45.70;21.90;;;;;;;-1.79;75.79;100126.57;2130397;83;20999;-84
2022/01/23 08:21:43;;;;;;;49.83;23.27;;;;;;;-1.61;75.72;100135.75;2168558;81;21417;-83
2022/01/23 08:24:44;;;;;;;49.83;24.30;;;;;;;-1.51;75.46;100137.38;2133094;83;21093;-83
2022/01/23 08:27:44;;;;;;;44.33;21.97;;;;;;;-1.39;75.15;100131.95;2168488;81;20983;-83
2022/01/23 08:30:45;;;;;;;54.27;23.87;;;;;;;-1.25;74.90;100134.70;2132877;83;21010;-84
2022/01/23 08:33:45;;;;;;;47.83;22.63;;;;;;;-1.14;74.39;100148.86;2170608;82;21010;-84
2022/01/23 08:36:46;;;;;;;54.30;23.87;;;;;;;-1.11;74.15;100144.36;2131378;83;21002;-84
2022/01/23 08:39:46;;;;;;;64.50;27.03;;;;;;;-1.10;74.42;100153.83;2145671;82;20986;-84
2022/01/23 08:42:47;;;;;;;56.93;23.97;;;;;;;-1.08;74.32;100158.30;2145255;82;20989;-84
2022/01/23 08:45:52;;;;;;;59.03;27.20;;;;;;;-1.03;74.31;100163.78;2135575;82;20986;-84
2022/01/23 08:48:53;;;;;;;49.53;24.77;;;;;;;-1.00;73.91;100165.30;2143491;82;21336;-84
2022/01/23 08:51:54;;;;;;;46.57;23.47;;;;;;;-1.03;74.00;100166.34;2136349;82;20965;-82
2022/01/23 08:54:57;;;;;;;48.40;22.97;;;;;;;-1.00;73.79;100171.72;2169539;81;20999;-81
2022/01/23 08:57:57;;;;;;;48.43;23.23;;;;;;;-0.92;73.94;100169.36;2228609;80;20944;-82
2022/01/23 09:00:57;;;;;;;44.97;21.37;;;;;;;-0.83;74.28;100172.67;2219958;80;21243;-82
2022/01/23 09:03:58;;;;;;;44.23;22.50;;;;;;;-0.80;74.00;100174.58;2222481;80;20975;-82
2022/01/23 09:06:58;;;;;;;47.23;22.47;;;;;;;-0.72;74.16;100173.50;2225928;80;20966;-84
2022/01/23 09:10:02;;;;;;;41.27;22.70;;;;;;;-0.67;73.68;100172.18;2214060;80;21384;-84
2022/01/23 09:13:09;;;;;;;44.70;22.27;;;;;;;-0.68;73.52;100166.55;2167984;82;21099;-84
2022/01/23 09:16:07;;;;;;;43.87;21.03;;;;;;;-0.67;73.46;100179.48;2116012;82;21003;-83
2022/01/23 09:19:07;;;;;;;51.03;21.93;;;;;;;-0.63;73.35;100180.61;2152365;82;21095;-84
2022/01/23 09:22:08;;;;;;;43.87;20.83;;;;;;;-0.61;73.27;100178.16;2153171;82;21367;-84
2022/01/23 09:25:08;;;;;;;47.87;24.30;;;;;;;-0.53;73.29;100177.98;2117667;83;20983;-84
2022/01/23 09:28:13;;;;;;;47.30;21.80;;;;;;;-0.43;73.18;100178.28;2162003;81;21000;-83
2022/01/23 09:31:25;;;;;;;44.37;20.73;;;;;;;-0.42;72.29;100182.64;2152560;81;20999;-84
2022/01/23 09:34:16;;;;;;;48.00;23.53;;;;;;;-0.41;72.65;100178.91;2144566;82;21062;-84
2022/01/23 09:37:17;;;;;;;44.60;21.10;;;;;;;-0.23;72.92;100179.40;2135515;82;21344;-84
2022/01/23 09:40:18;;;;;;;47.63;22.33;;;;;;;-0.14;71.79;100181.77;2154437;82;21034;-83
2022/01/23 09:43:18;;;;;;;44.20;23.33;;;;;;;-0.07;72.20;100182.34;2140856;82;20953;-82
2022/01/23 09:46:19;;;;;;;46.03;21.57;;;;;;;0.01;71.70;100189.75;2162645;82;20993;-81
2022/01/23 09:49:19;;;;;;;45.27;21.57;;;;;;;0.11;72.09;100193.11;2150745;81;21049;-81
2022/01/23 09:52:20;;;;;;;46.27;21.93;;;;;;;0.22;70.73;100193.91;2166509;82;21037;-81
2022/01/23 09:55:21;;;;;;;50.57;22.67;;;;;;;0.26;71.25;100200.66;2128263;83;21061;-81
2022/01/23 09:58:22;;;;;;;45.97;22.77;;;;;;;0.39;70.52;100199.88;2169048;81;21453;-83
2022/01/23 10:01:23;;;;;;;46.43;23.10;;;;;;;0.46;70.06;100200.84;2129839;83;21011;-84
2022/01/23 10:04:23;;;;;;;43.00;22.03;;;;;;;0.53;69.99;100194.08;2144199;82;21042;-83
2022/01/23 10:07:24;;;;;;;46.60;23.33;;;;;;;0.54;70.31;100192.01;2128651;82;21360;-84
2022/01/23 10:10:30;;;;;;;44.57;22.47;;;;;;;0.71;69.96;100189.77;2146675;82;21377;-83
2022/01/23 10:13:27;;;;;;;46.30;23.30;;;;;;;0.77;69.51;100196.63;2167943;81;21074;-83
2022/01/23 10:16:27;;;;;;;53.23;24.70;;;;;;;0.68;69.72;100185.30;2129482;83;21000;-84
2022/01/23 10:19:28;;;;;;;43.20;23.57;;;;;;;0.66;69.43;100196.25;2140184;82;20932;-83
2022/01/23 10:22:28;;;;;;;44.90;21.33;;;;;;;0.69;69.43;100200.32;2129508;82;21075;-83
2022/01/23 10:25:29;;;;;;;45.00;20.77;;;;;;;0.71;69.25;100202.61;2132842;82;21368;-84
2022/01/23 10:28:31;;;;;;;40.17;20.77;;;;;;;0.70;69.19;100208.53;2128333;83;20992;-83
2022/01/23 10:31:32;;;;;;;44.40;21.47;;;;;;;0.64;69.77;100202.17;2128208;82;21080;-83
2022/01/23 10:34:32;;;;;;;42.87;20.80;;;;;;;0.61;69.54;100208.38;2161502;82;20994;-84
2022/01/23 10:37:33;;;;;;;41.97;21.73;;;;;;;0.53;69.48;100210.78;2131956;83;21351;-83
2022/01/23 10:40:36;;;;;;;46.30;20.83;;;;;;;0.50;69.94;100209.27;2130039;82;21377;-84
2022/01/23 10:47:27;;;;;;;37.20;20.73;;;;;;;0.57;69.77;100196.08;2141784;82;21113;-83
2022/01/23 10:49:57;;;;;;;39.23;19.97;;;;;;;0.61;69.57;100201.95;2147101;82;21455;-82
2022/01/23 10:52:57;;;;;;;41.63;21.43;;;;;;;0.68;69.27;100201.11;2148464;82;20964;-84
2022/01/23 10:55:58;;;;;;;39.57;21.33;;;;;;;0.66;69.40;100197.53;2146596;82;21055;-84
2022/01/23 10:58:58;;;;;;;43.93;20.73;;;;;;;0.72;69.38;100194.11;2140651;82;21439;-83
2022/01/23 11:01:59;;;;;;;42.27;19.93;;;;;;;0.77;69.37;100195.34;2129744;82;21360;-84
2022/01/23 11:05:00;;;;;;;44.37;23.40;;;;;;;0.80;68.46;100198.12;2134599;83;22075;-83
2022/01/23 11:08:01;;;;;;;48.53;21.03;;;;;;;0.76;69.25;100189.30;2124235;82;21424;-83
2022/01/23 11:11:02;;;;;;;46.10;23.87;;;;;;;0.88;69.21;100188.92;2132166;82;21015;-82
2022/01/23 11:17:22;;;;;;;39.30;20.70;;;;;;;0.88;68.71;100194.46;2165381;82;21505;-84
2022/01/23 11:20:23;;;;;;;41.93;23.33;;;;;;;0.90;69.07;100187.75;2153760;82;21362;-83
2022/01/23 11:23:23;;;;;;;48.20;22.53;;;;;;;0.98;69.15;100186.62;2144989;82;21000;-83
2022/01/23 11:26:24;;;;;;;44.23;22.37;;;;;;;1.13;69.02;100190.27;2125970;82;21043;-84
2022/01/23 11:29:24;;;;;;;47.47;25.13;;;;;;;1.13;68.34;100197.09;2126611;82;21016;-83
2022/01/23 11:32:26;;;;;;;64.40;36.77;;;;;;;1.05;68.55;100198.23;2154377;82;21004;-83
2022/01/23 11:35:27;;;;;;;61.53;33.10;;;;;;;0.96;68.40;100201.04;2131506;82;21024;-84
2022/01/23 11:38:28;;;;;;;46.27;30.03;;;;;;;0.95;68.74;100192.83;2142371;82;21077;-84
2022/01/23 11:54:30;;;;;;;57.30;28.50;;;;;;;1.25;68.82;100191.12;2147228;82;20971;-85
2022/01/23 11:57:31;;;;;;;37.40;21.20;;;;;;;1.23;68.55;100191.41;2134976;83;21014;-85
2022/01/23 12:00:32;;;;;;;64.13;32.20;;;;;;;1.28;68.83;100193.02;2159654;82;21087;-86
2022/01/23 12:03:32;;;;;;;61.13;33.13;;;;;;;1.28;68.31;100195.59;2165291;82;20993;-85
2022/01/23 12:06:33;;;;;;;64.33;40.03;;;;;;;1.24;68.41;100203.88;2181470;81;20978;-86
2022/01/23 12:09:33;;;;;;;37.53;23.27;;;;;;;1.15;68.45;100204.13;2130630;83;22282;-83
2022/01/23 12:12:40;;;;;;;45.50;22.80;;;;;;;1.10;68.91;100208.05;2156707;82;21015;-84
2022/01/23 12:18:55;;;;;;;46.70;22.67;;;;;;;1.16;69.16;100212.34;2122728;82;21044;-83
2022/01/23 12:21:56;;;;;;;42.73;21.93;;;;;;;1.24;69.16;100216.34;2124081;83;21016;-83
2022/01/23 12:24:56;;;;;;;49.80;23.63;;;;;;;1.28;68.88;100225.16;2132572;82;21039;-83
2022/01/23 12:27:56;;;;;;;48.03;25.17;;;;;;;1.32;69.28;100228.84;2126757;82;21008;-83
2022/01/23 12:30:57;;;;;;;47.90;23.53;;;;;;;1.37;68.89;100230.06;2133865;82;21136;-82
2022/01/23 12:34:01;;;;;;;47.33;25.00;;;;;;;1.35;68.96;100233.81;2127540;82;21380;-81
2022/01/23 12:37:00;;;;;;;39.90;20.73;;;;;;;1.32;68.72;100231.42;2154051;82;21133;-81
2022/01/23 12:40:00;;;;;;;54.17;26.57;;;;;;;1.34;68.93;100238.45;2167295;82;21006;-83
2022/01/23 12:43:01;;;;;;;35.80;19.20;;;;;;;1.39;68.82;100234.92;2138690;83;21042;-84
2022/01/23 12:46:01;;;;;;;38.90;18.80;;;;;;;1.42;67.82;100238.99;2159835;82;21306;-84
2022/01/23 12:49:03;;;;;;;40.50;21.57;;;;;;;1.42;68.17;100240.28;2205888;80;20951;-83
2022/01/23 12:52:03;;;;;;;34.60;19.47;;;;;;;1.44;68.75;100237.03;2205683;80;21090;-83
2022/01/23 12:55:04;;;;;;;28.53;17.47;;;;;;;1.44;68.16;100228.41;2210245;80;21339;-84
2022/01/23 12:58:04;;;;;;;35.83;18.80;;;;;;;1.43;67.71;100232.67;2215967;80;21015;-84
2022/01/23 13:01:05;;;;;;;36.27;19.30;;;;;;;1.41;68.02;100219.20;2205704;80;20984;-84
2022/01/23 13:04:06;;;;;;;37.30;20.50;;;;;;;1.44;67.86;100230.98;2204111;80;21031;-84
2022/01/23 13:07:10;;;;;;;35.60;19.97;;;;;;;1.36;67.72;100226.98;2201080;80;20956;-83
2022/01/23 13:11:22;;;;;;;35.07;19.33;;;;;;;1.34;68.16;100219.56;2149221;82;20964;-83
2022/01/23 13:13:36;;;;;;;33.70;19.47;;;;;;;1.36;68.19;100220.56;2115710;83;21074;-84
2022/01/23 13:16:58;;;;;;;48.23;22.90;;;;;;;1.39;68.53;100218.20;2167844;82;21030;-84
2022/01/23 13:26:25;;;;;;;50.00;21.97;;;;;;;1.36;68.92;100224.41;2166243;81;21079;-83
2022/01/23 13:32:45;;;;;;;39.77;19.43;;;;;;;1.05;68.86;100230.37;2109184;84;20977;-83
2022/01/23 13:35:43;;;;;;;34.83;19.03;;;;;;;0.99;69.14;100230.83;2125397;82;21422;-82
2022/01/23 13:38:43;;;;;;;32.97;19.43;;;;;;;0.95;69.43;100231.39;2142433;82;21047;-84
2022/01/23 13:51:31;;;;;;;37.80;20.03;;;;;;;0.82;69.81;100240.26;2105466;82;20949;-83
2022/01/23 13:57:39;;;;;;;40.77;19.77;;;;;;;0.70;70.18;100253.51;2119544;82;21017;-84
2022/01/23 14:00:33;;;;;;;38.60;20.23;;;;;;;0.61;70.43;100249.48;2150327;82;21065;-83
2022/01/23 14:03:34;;;;;;;38.87;21.20;;;;;;;0.56;70.60;100253.39;2147655;82;21445;-84
2022/01/23 14:06:34;;;;;;;41.77;21.40;;;;;;;0.49;70.82;100265.28;2140110;82;20995;-82
2022/01/23 14:09:35;;;;;;;37.57;20.57;;;;;;;0.42;71.07;100268.19;2143480;82;21045;-83
2022/01/23 14:12:35;;;;;;;43.20;22.67;;;;;;;0.36;71.33;100271.58;2168495;81;20991;-82
2022/01/23 14:15:36;;;;;;;47.63;24.47;;;;;;;0.36;71.69;100280.57;2130552;83;21019;-82
2022/01/23 14:18:36;;;;;;;54.47;25.50;;;;;;;0.37;71.75;100282.75;2169366;81;21014;-82
2022/01/23 14:21:37;;;;;;;60.73;30.40;;;;;;;0.39;71.76;100281.19;2127356;83;21062;-82
2022/01/23 14:24:40;;;;;;;87.50;39.67;;;;;;;0.35;71.84;100292.02;2168455;81;21023;-83
2022/01/23 14:27:41;;;;;;;91.20;43.90;;;;;;;0.29;71.85;100292.45;2129255;83;21090;-83
2022/01/23 14:30:41;;;;;;;113.47;47.93;;;;;;;0.24;71.90;100304.05;2169877;81;21018;-82
2022/01/23 14:33:42;;;;;;;144.43;54.87;;;;;;;0.13;72.05;100308.37;2130477;83;21014;-83
2022/01/23 14:36:42;;;;;;;135.03;51.30;;;;;;;0.04;72.43;100301.66;2135159;82;20996;-82
2022/01/23 14:39:43;;;;;;;105.63;42.00;;;;;;;-0.06;72.54;100311.58;2131368;82;21050;-82
2022/01/23 14:42:43;;;;;;;156.67;57.93;;;;;;;-0.18;72.90;100302.55;2136293;82;20988;-82
2022/01/23 14:45:43;;;;;;;97.93;39.80;;;;;;;-0.27;73.12;100306.07;2136932;83;21028;-83
2022/01/23 14:48:46;;;;;;;118.77;49.23;;;;;;;-0.39;73.27;100309.48;2134734;82;21390;-82
2022/01/23 14:51:46;;;;;;;132.33;54.20;;;;;;;-0.48;73.63;100315.56;2139280;83;20999;-82
2022/01/23 14:54:47;;;;;;;86.23;38.67;;;;;;;-0.58;73.75;100311.77;2135739;83;20983;-81
2022/01/23 14:57:47;;;;;;;62.83;28.37;;;;;;;-0.67;73.89;100311.55;2133920;82;21032;-82
2022/01/23 15:00:48;;;;;;;58.47;28.20;;;;;;;-0.73;74.13;100316.20;2135593;82;21004;-81
2022/01/23 15:03:52;;;;;;;51.63;25.67;;;;;;;-0.77;74.33;100313.27;2131439;82;21012;-82
2022/01/23 15:06:54;;;;;;;48.53;26.37;;;;;;;-0.84;74.30;100317.39;2127082;82;21080;-82
2022/01/23 15:09:54;;;;;;;47.30;24.80;;;;;;;-0.90;74.49;100309.19;2123214;83;21051;-81
2022/01/23 15:12:55;;;;;;;52.97;25.77;;;;;;;-0.94;74.72;100318.30;2127699;82;20987;-81
2022/01/23 15:15:55;;;;;;;61.43;30.10;;;;;;;-0.93;74.85;100315.34;2165379;82;21018;-81
2022/01/23 15:18:56;;;;;;;79.83;35.93;;;;;;;-0.94;74.86;100319.97;2181178;81;20998;-82
2022/01/23 15:21:57;;;;;;;91.27;39.93;;;;;;;-0.96;75.01;100330.98;2128367;83;21015;-82
2022/01/23 15:24:58;;;;;;;84.33;38.77;;;;;;;-0.92;75.21;100332.13;2152706;82;21372;-82
2022/01/23 15:27:58;;;;;;;78.13;35.57;;;;;;;-0.86;75.25;100330.09;2149165;82;21366;-82
2022/01/23 15:30:59;;;;;;;71.77;32.20;;;;;;;-0.82;75.17;100329.56;2167604;81;21405;-83
2022/01/23 15:33:59;;;;;;;64.20;29.43;;;;;;;-0.77;75.10;100338.91;2132431;83;21382;-82
2022/01/23 15:37:00;;;;;;;71.10;33.27;;;;;;;-0.80;74.83;100342.13;2169526;81;21366;-83
2022/01/23 15:40:01;;;;;;;69.13;31.33;;;;;;;-0.84;74.81;100344.31;2131058;83;20979;-82
2022/01/23 15:43:01;;;;;;;64.43;30.00;;;;;;;-0.89;74.87;100344.30;2169465;81;21410;-82
2022/01/23 15:46:03;;;;;;;63.20;31.07;;;;;;;-0.95;75.02;100352.39;2129289;83;21010;-82
2022/01/23 15:49:04;;;;;;;61.23;30.57;;;;;;;-1.01;75.12;100353.17;2171905;81;21401;-82
2022/01/23 15:52:04;;;;;;;66.20;32.50;;;;;;;-1.06;75.20;100362.16;2212788;80;20937;-82
2022/01/23 15:55:05;;;;;;;64.50;33.27;;;;;;;-1.13;75.23;100361.15;2214387;80;20965;-82
2022/01/23 15:58:05;;;;;;;69.13;34.13;;;;;;;-1.17;75.21;100364.23;2210448;80;21023;-82
2022/01/23 16:01:06;;;;;;;74.90;32.83;;;;;;;-1.21;75.20;100369.88;2211101;80;21003;-82
2022/01/23 16:04:06;;;;;;;66.10;31.03;;;;;;;-1.31;75.28;100370.79;2207122;80;21014;-82
2022/01/23 16:07:07;;;;;;;57.70;29.67;;;;;;;-1.36;75.33;100370.41;2212299;80;20943;-82
2022/01/23 16:10:07;;;;;;;61.17;30.00;;;;;;;-1.42;75.45;100372.47;2213413;80;21029;-82
2022/01/23 16:13:08;;;;;;;58.23;30.93;;;;;;;-1.46;75.54;100369.14;2199569;80;20979;-82
2022/01/23 16:16:08;;;;;;;57.10;29.33;;;;;;;-1.50;75.63;100368.76;2222162;80;21015;-82
2022/01/23 16:22:11;;;;;;;56.93;29.40;;;;;;;-1.54;75.89;100378.23;2222678;80;20990;-82
2022/01/23 16:25:11;;;;;;;61.53;31.70;;;;;;;-1.57;75.97;100384.00;2224760;80;21022;-82
2022/01/23 16:28:12;;;;;;;56.83;28.33;;;;;;;-1.61;75.98;100386.69;2222975;80;20967;-82
2022/01/23 16:31:13;;;;;;;57.20;27.67;;;;;;;-1.64;75.92;100381.69;2221522;80;20975;-82
2022/01/23 16:34:13;;;;;;;57.27;27.83;;;;;;;-1.70;76.00;100387.58;2222971;80;21027;-82
2022/01/23 16:37:14;;;;;;;56.17;27.90;;;;;;;-1.75;76.22;100392.27;2220624;80;20987;-82
2022/01/23 16:40:14;;;;;;;51.80;28.63;;;;;;;-1.79;76.30;100394.45;2224198;80;21007;-82
2022/01/23 16:43:15;;;;;;;53.80;25.83;;;;;;;-1.83;76.24;100398.80;2227345;80;21010;-82
2022/01/23 16:46:16;;;;;;;49.53;26.37;;;;;;;-1.88;76.23;100401.34;2224643;80;20976;-82
2022/01/23 16:49:16;;;;;;;50.13;25.13;;;;;;;-1.94;76.41;100405.17;2225838;80;21007;-82
2022/01/23 16:52:17;;;;;;;52.33;25.60;;;;;;;-2.00;76.20;100407.21;2227659;80;21033;-82
2022/01/23 16:55:18;;;;;;;46.97;24.13;;;;;;;-2.07;76.09;100408.73;2206489;80;21441;-82
2022/01/23 16:58:18;;;;;;;49.73;24.07;;;;;;;-2.14;76.02;100401.30;2204674;80;20991;-81
2022/01/23 17:01:18;;;;;;;46.53;23.57;;;;;;;-2.18;76.12;100404.35;2216013;80;21024;-82
2022/01/23 17:04:19;;;;;;;41.73;22.47;;;;;;;-2.24;75.92;100405.10;2205512;80;20964;-81